Absecon, New Jersey
Current Conditions -  °F | °C
As of 12:54 PM on Thursday 29 Jan 2015 (Local Time) from KACY Reporting Station
Clear Clear  
Wind Chill: 29°   Ceiling: Unl
Heat Index: 33°   Visibility: 10mi
Dew Point: 12°   Wind: 5mph
Humidity: 42%   Direction: 180°S
Pressure: 30.23"   Gusts: NA
Location:  39.43°N, 74.51°W
Report Text: KACY 291754Z 18004KT 10SM CLR 01/M11 A3023 RMK AO2 SLP238 T00061111 10006 21106 58029
Loading
Personal Weather Stations






























Interactive Weather Map New forecast layout! Learn more

10-Day Weather Forecast

Advertisements
Track Severe Weather on mobile